Marchiennes (59) - F

Date : 17/03/2013
Distance : 4,700 km

Place Nom Licence Catégorie Club Temps min/km CN à J-60 Points Différence Nouveau CN
1 BAILLEUL Jean-Paul 9165 H60 6009PI 0:38:56 8'17 4533 4629 +96 4589
2 PATURET Bertrand 2878 H65 6009PI 0:43:36 9'16 3812 4133 +321 3994
3 HUMBERTCLAUDE J-Paul 16205 H65 5909NO 0:43:45 9'18 4289 4119 -170 4305
4 WULLUS J-Noel 9523 H60 5907NO 0:45:14 9'37 2965 3984 +1019 3523
5 EJSMONT Jean 5597 H65 6203NO 0:51:29 10'57 3951 3501 -450 3893
6 GERBEAUX Jean-paul 23596 H60 6205NO 0:51:37 10'58 3364 3491 +127 3339
7 LEROY Odile 7216 D50 5907NO 0:53:40 11'25 3434 3358 -76 3333
8 GERBEAUX Marie-jeanne 22417 D60 6205NO 0:54:00 11'29 3180 3337 +157 3233
9 GRENOUILLAT Annick 13087 D55 5907NO 0:56:11 11'57 3004 3208 +204 3127
10 DELAPORTE Léa 20067 D18 5116CA 0:56:31 12'01 3606 3189 -417 3606
11 BUTTIN Franck 25301 H45 6009PI 0:58:02 12'20 3016 3105 +89 3089
12 HAGARD Virginie 7048 D21 5907NO 0:59:54 12'44 3009 2889
13 BOULANGER Isabelle 10639 D55 5907NO 1:05:10 13'51 3296 2765 -531 3276
14 PONCE Bernard 971 H70 0801CA 1:05:49 14'00 2047 2738 +691 2528
15 JUDAS Sylvaine 13635 D55 6208NO 1:07:54 14'26 1871 2654 +783 2000
16 BASSON Jean-Claude 1721 H60 5116CA 1:09:43 14'50 3257 2585 -672 3056
17 POULAIN Odile 1948 D50 5909NO 1:11:45 15'15 3010 2512 -498 2778
18 GOZE Anne 22931 D55 5907NO 1:13:39 15'40 0 2447 1677
19 DETOC Brigitte 18196 D55 5116CA 1:15:35 16'04 2046 2384 +338 2115
20 RIMETZ Marcelline 22235 D60 6208NO 1:21:21 17'18 1937 2215 +278 1965
21 LAMINETTE M-Odile 17201 D50 5907NO 1:24:13 17'55 2949 2140 -809 2949
22 LUDEWIG-JAMES Carol 15894 D70 5907NO 1:26:38 18'25 2046 2080 +34 1921
23 LAURENT Manon 25577 D18 5907NO 1:29:49 19'06 2535 2007 -528 2535
PRUVOST Virginie 25881 D40 6208NO pm None 2407 0 2458